sensor_id;sensor_type;location;lat;lon;timestamp;pressure;altitude;pressure_sealevel;temperature;humidity
49825;BME280;35714;55.708;37.478;2023-02-11T00:01:11;99311.03;;;-0.71;61.30
49825;BME280;35714;55.708;37.478;2023-02-11T00:03:38;99318.34;;;-0.73;61.44
49825;BME280;35714;55.708;37.478;2023-02-11T00:06:05;99319.53;;;-0.67;61.03
49825;BME280;35714;55.708;37.478;2023-02-11T00:08:34;99315.84;;;-0.66;60.82
49825;BME280;35714;55.708;37.478;2023-02-11T00:10:59;99314.34;;;-0.85;61.18
49825;BME280;35714;55.708;37.478;2023-02-11T00:13:25;99315.19;;;-0.85;61.49
49825;BME280;35714;55.708;37.478;2023-02-11T00:15:52;99314.16;;;-0.92;61.70
49825;BME280;35714;55.708;37.478;2023-02-11T00:18:17;99311.16;;;-0.97;61.79
49825;BME280;35714;55.708;37.478;2023-02-11T00:20:43;99292.66;;;-1.15;62.04
49825;BME280;35714;55.708;37.478;2023-02-11T00:23:09;99314.63;;;-1.05;62.52
49825;BME280;35714;55.708;37.478;2023-02-11T00:25:39;99323.81;;;-0.91;61.85
49825;BME280;35714;55.708;37.478;2023-02-11T00:28:05;99309.47;;;-1.06;61.95
49825;BME280;35714;55.708;37.478;2023-02-11T00:30:31;99309.16;;;-1.12;62.16
49825;BME280;35714;55.708;37.478;2023-02-11T00:32:58;99314.47;;;-1.12;62.47
49825;BME280;35714;55.708;37.478;2023-02-11T00:35:24;99316.44;;;-1.14;62.08
49825;BME280;35714;55.708;37.478;2023-02-11T00:37:52;99313.75;;;-1.22;62.72
49825;BME280;35714;55.708;37.478;2023-02-11T00:40:18;99322.88;;;-1.24;63.03
49825;BME280;35714;55.708;37.478;2023-02-11T00:42:44;99323.38;;;-1.29;63.00
49825;BME280;35714;55.708;37.478;2023-02-11T00:45:10;99316.34;;;-1.38;62.94
49825;BME280;35714;55.708;37.478;2023-02-11T00:47:36;99320.38;;;-1.34;63.02
49825;BME280;35714;55.708;37.478;2023-02-11T00:50:02;99333.31;;;-1.39;63.09
49825;BME280;35714;55.708;37.478;2023-02-11T00:52:30;99333.31;;;-1.39;63.20
49825;BME280;35714;55.708;37.478;2023-02-11T00:54:56;99336.28;;;-1.42;63.29
49825;BME280;35714;55.708;37.478;2023-02-11T00:57:22;99342.94;;;-1.38;63.19
49825;BME280;35714;55.708;37.478;2023-02-11T00:59:48;99336.31;;;-1.34;62.51
49825;BME280;35714;55.708;37.478;2023-02-11T01:02:15;99338.13;;;-1.43;63.09
49825;BME280;35714;55.708;37.478;2023-02-11T01:04:41;99319.50;;;-1.43;63.01
49825;BME280;35714;55.708;37.478;2023-02-11T01:07:07;99328.63;;;-1.46;63.33
49825;BME280;35714;55.708;37.478;2023-02-11T01:09:33;99334.28;;;-1.49;63.15
49825;BME280;35714;55.708;37.478;2023-02-11T01:11:59;99339.47;;;-1.39;62.93
49825;BME280;35714;55.708;37.478;2023-02-11T01:14:24;99336.25;;;-1.51;63.15
49825;BME280;35714;55.708;37.478;2023-02-11T01:16:50;99343.53;;;-1.53;63.30
49825;BME280;35714;55.708;37.478;2023-02-11T01:19:15;99344.91;;;-1.49;63.04
49825;BME280;35714;55.708;37.478;2023-02-11T01:21:44;99347.88;;;-1.52;62.85
49825;BME280;35714;55.708;37.478;2023-02-11T01:24:10;99352.16;;;-1.59;63.07
49825;BME280;35714;55.708;37.478;2023-02-11T01:26:35;99356.50;;;-1.58;63.12
49825;BME280;35714;55.708;37.478;2023-02-11T01:29:01;99358.69;;;-1.53;62.89
49825;BME280;35714;55.708;37.478;2023-02-11T01:31:27;99347.91;;;-1.43;62.54
49825;BME280;35714;55.708;37.478;2023-02-11T01:33:52;99353.88;;;-1.50;62.37
49825;BME280;35714;55.708;37.478;2023-02-11T01:36:18;99351.50;;;-1.61;62.90
49825;BME280;35714;55.708;37.478;2023-02-11T01:38:44;99369.44;;;-1.63;63.01
49825;BME280;35714;55.708;37.478;2023-02-11T01:41:12;99364.94;;;-1.63;63.26
49825;BME280;35714;55.708;37.478;2023-02-11T01:43:44;99365.75;;;-1.62;62.88
49825;BME280;35714;55.708;37.478;2023-02-11T01:48:52;99362.44;;;-1.64;63.15
49825;BME280;35714;55.708;37.478;2023-02-11T01:51:25;99366.31;;;-1.58;62.87
49825;BME280;35714;55.708;37.478;2023-02-11T01:53:52;99367.53;;;-1.44;62.43
49825;BME280;35714;55.708;37.478;2023-02-11T01:56:40;99361.56;;;-1.38;62.21
49825;BME280;35714;55.708;37.478;2023-02-11T01:59:40;99356.13;;;-1.29;61.81
49825;BME280;35714;55.708;37.478;2023-02-11T02:02:11;99331.31;;;-1.37;61.75
49825;BME280;35714;55.708;37.478;2023-02-11T02:04:47;99352.03;;;-1.15;61.41
49825;BME280;35714;55.708;37.478;2023-02-11T02:07:24;99352.72;;;-1.04;60.58
49825;BME280;35714;55.708;37.478;2023-02-11T02:09:58;99352.56;;;-0.95;59.57
49825;BME280;35714;55.708;37.478;2023-02-11T02:12:26;99351.91;;;-0.97;59.79
49825;BME280;35714;55.708;37.478;2023-02-11T02:15:10;99334.47;;;-0.91;59.18
49825;BME280;35714;55.708;37.478;2023-02-11T02:17:50;99355.13;;;-0.85;59.11
49825;BME280;35714;55.708;37.478;2023-02-11T02:23:20;99362.41;;;-0.79;59.19
49825;BME280;35714;55.708;37.478;2023-02-11T02:34:37;99367.41;;;-0.76;59.78
49825;BME280;35714;55.708;37.478;2023-02-11T02:37:07;99372.41;;;-0.73;59.62
49825;BME280;35714;55.708;37.478;2023-02-11T02:39:35;99354.81;;;-0.74;59.62
49825;BME280;35714;55.708;37.478;2023-02-11T02:42:02;99368.44;;;-0.68;59.54
49825;BME280;35714;55.708;37.478;2023-02-11T02:44:28;99360.94;;;-0.73;59.48
49825;BME280;35714;55.708;37.478;2023-02-11T02:46:54;99369.09;;;-0.66;59.18
49825;BME280;35714;55.708;37.478;2023-02-11T02:49:20;99365.13;;;-0.62;59.00
49825;BME280;35714;55.708;37.478;2023-02-11T02:54:42;99353.47;;;-0.69;59.05
49825;BME280;35714;55.708;37.478;2023-02-11T03:06:01;99354.47;;;-0.70;58.53
49825;BME280;35714;55.708;37.478;2023-02-11T03:08:42;99350.13;;;-0.71;57.93
49825;BME280;35714;55.708;37.478;2023-02-11T03:11:11;99356.78;;;-0.76;57.92
49825;BME280;35714;55.708;37.478;2023-02-11T03:13:41;99356.09;;;-0.86;58.03
49825;BME280;35714;55.708;37.478;2023-02-11T03:16:12;99346.59;;;-0.88;58.68
49825;BME280;35714;55.708;37.478;2023-02-11T03:18:42;99343.28;;;-0.82;58.08
49825;BME280;35714;55.708;37.478;2023-02-11T03:21:09;99361.59;;;-0.79;58.05
49825;BME280;35714;55.708;37.478;2023-02-11T03:23:39;99349.44;;;-0.90;57.90
49825;BME280;35714;55.708;37.478;2023-02-11T03:26:31;99344.59;;;-0.95;58.13
49825;BME280;35714;55.708;37.478;2023-02-11T03:29:09;99351.03;;;-1.05;58.67
49825;BME280;35714;55.708;37.478;2023-02-11T03:32:01;99345.53;;;-1.12;58.81
49825;BME280;35714;55.708;37.478;2023-02-11T03:34:35;99338.69;;;-1.23;59.02
49825;BME280;35714;55.708;37.478;2023-02-11T03:39:44;99341.97;;;-1.29;59.21
49825;BME280;35714;55.708;37.478;2023-02-11T03:42:13;99335.66;;;-1.36;59.36
49825;BME280;35714;55.708;37.478;2023-02-11T03:44:45;99337.59;;;-1.47;59.73
49825;BME280;35714;55.708;37.478;2023-02-11T03:47:13;99328.44;;;-1.52;59.73
49825;BME280;35714;55.708;37.478;2023-02-11T03:49:42;99328.53;;;-1.62;59.98
49825;BME280;35714;55.708;37.478;2023-02-11T03:52:10;99332.69;;;-1.68;60.33
49825;BME280;35714;55.708;37.478;2023-02-11T03:54:38;99323.88;;;-1.68;60.27
49825;BME280;35714;55.708;37.478;2023-02-11T03:57:05;99329.84;;;-1.74;60.53
49825;BME280;35714;55.708;37.478;2023-02-11T03:59:30;99326.44;;;-1.85;60.64
49825;BME280;35714;55.708;37.478;2023-02-11T04:01:56;99326.16;;;-1.73;60.69
49825;BME280;35714;55.708;37.478;2023-02-11T04:04:24;99330.00;;;-1.76;60.77
49825;BME280;35714;55.708;37.478;2023-02-11T04:06:49;99331.59;;;-1.83;61.09
49825;BME280;35714;55.708;37.478;2023-02-11T04:09:15;99322.88;;;-1.93;61.44
49825;BME280;35714;55.708;37.478;2023-02-11T04:11:41;99327.69;;;-1.97;61.55
49825;BME280;35714;55.708;37.478;2023-02-11T04:14:06;99332.03;;;-1.96;61.48
49825;BME280;35714;55.708;37.478;2023-02-11T04:16:32;99322.53;;;-1.98;61.50
49825;BME280;35714;55.708;37.478;2023-02-11T04:18:58;99330.72;;;-1.92;61.38
49825;BME280;35714;55.708;37.478;2023-02-11T04:21:23;99328.16;;;-2.02;61.58
49825;BME280;35714;55.708;37.478;2023-02-11T04:23:49;99320.97;;;-2.09;61.72
49825;BME280;35714;55.708;37.478;2023-02-11T04:26:15;99328.13;;;-2.10;61.74
49825;BME280;35714;55.708;37.478;2023-02-11T04:28:40;99324.56;;;-2.19;61.79
49825;BME280;35714;55.708;37.478;2023-02-11T04:31:06;99324.56;;;-2.19;62.01
49825;BME280;35714;55.708;37.478;2023-02-11T04:33:31;99321.22;;;-2.21;61.90
49825;BME280;35714;55.708;37.478;2023-02-11T04:35:57;99323.88;;;-2.21;61.88
49825;BME280;35714;55.708;37.478;2023-02-11T04:38:23;99316.91;;;-2.22;61.96
49825;BME280;35714;55.708;37.478;2023-02-11T04:40:49;99309.56;;;-2.28;62.03
49825;BME280;35714;55.708;37.478;2023-02-11T04:43:14;99314.19;;;-2.30;62.15
49825;BME280;35714;55.708;37.478;2023-02-11T04:45:40;99313.22;;;-2.29;62.02
49825;BME280;35714;55.708;37.478;2023-02-11T04:48:06;99320.88;;;-2.26;62.07
49825;BME280;35714;55.708;37.478;2023-02-11T04:50:31;99317.44;;;-2.18;61.65
49825;BME280;35714;55.708;37.478;2023-02-11T04:52:57;99332.22;;;-2.15;61.21
49825;BME280;35714;55.708;37.478;2023-02-11T04:55:23;99315.28;;;-2.14;60.84
49825;BME280;35714;55.708;37.478;2023-02-11T04:57:48;99323.94;;;-2.12;61.25
49825;BME280;35714;55.708;37.478;2023-02-11T05:00:14;99317.44;;;-2.18;61.25
49825;BME280;35714;55.708;37.478;2023-02-11T05:02:40;99332.91;;;-2.13;61.25
49825;BME280;35714;55.708;37.478;2023-02-11T05:05:06;99328.56;;;-2.14;61.14
49825;BME280;35714;55.708;37.478;2023-02-11T05:07:32;99316.88;;;-2.04;61.01
49825;BME280;35714;55.708;37.478;2023-02-11T05:09:57;99304.53;;;-2.13;60.62
49825;BME280;35714;55.708;37.478;2023-02-11T05:12:23;99329.31;;;-2.04;60.84
49825;BME280;35714;55.708;37.478;2023-02-11T05:14:49;99309.41;;;-2.00;60.03
49825;BME280;35714;55.708;37.478;2023-02-11T05:17:14;99321.09;;;-1.93;60.34
49825;BME280;35714;55.708;37.478;2023-02-11T05:19:41;99317.03;;;-1.79;59.91
49825;BME280;35714;55.708;37.478;2023-02-11T05:22:07;99307.50;;;-1.90;60.10
49825;BME280;35714;55.708;37.478;2023-02-11T05:24:33;99324.84;;;-1.77;60.38
49825;BME280;35714;55.708;37.478;2023-02-11T05:26:59;99316.91;;;-1.69;59.66
49825;BME280;35714;55.708;37.478;2023-02-11T05:29:24;99316.25;;;-1.63;59.80
49825;BME280;35714;55.708;37.478;2023-02-11T05:31:50;99317.91;;;-1.62;59.73
49825;BME280;35714;55.708;37.478;2023-02-11T05:34:15;99317.09;;;-1.63;60.07
49825;BME280;35714;55.708;37.478;2023-02-11T05:36:41;99308.94;;;-1.61;59.92
49825;BME280;35714;55.708;37.478;2023-02-11T05:39:06;99315.97;;;-1.52;59.59
49825;BME280;35714;55.708;37.478;2023-02-11T05:41:32;99323.28;;;-1.54;59.60
49825;BME280;35714;55.708;37.478;2023-02-11T05:43:58;99311.53;;;-1.43;59.21
49825;BME280;35714;55.708;37.478;2023-02-11T05:46:23;99306.88;;;-1.41;59.14
49825;BME280;35714;55.708;37.478;2023-02-11T05:48:49;99313.69;;;-1.38;59.24
49825;BME280;35714;55.708;37.478;2023-02-11T05:51:15;99305.03;;;-1.40;59.32
49825;BME280;35714;55.708;37.478;2023-02-11T05:53:40;99320.72;;;-1.29;59.22
49825;BME280;35714;55.708;37.478;2023-02-11T05:56:06;99319.75;;;-1.20;58.62
49825;BME280;35714;55.708;37.478;2023-02-11T05:58:32;99321.06;;;-1.24;58.98
49825;BME280;35714;55.708;37.478;2023-02-11T06:00:57;99313.88;;;-1.40;59.52
49825;BME280;35714;55.708;37.478;2023-02-11T06:03:23;99316.72;;;-1.33;59.33
49825;BME280;35714;55.708;37.478;2023-02-11T06:05:48;99316.41;;;-1.30;59.43
49825;BME280;35714;55.708;37.478;2023-02-11T06:08:14;99324.84;;;-1.35;59.63
49825;BME280;35714;55.708;37.478;2023-02-11T06:10:40;99323.69;;;-1.32;59.87
49825;BME280;35714;55.708;37.478;2023-02-11T06:13:09;99320.38;;;-1.26;59.66
49825;BME280;35714;55.708;37.478;2023-02-11T06:15:34;99307.63;;;-1.22;59.37
49825;BME280;35714;55.708;37.478;2023-02-11T06:18:00;99335.00;;;-1.30;59.63
49825;BME280;35714;55.708;37.478;2023-02-11T06:20:26;99322.34;;;-1.36;60.12
49825;BME280;35714;55.708;37.478;2023-02-11T06:22:51;99327.06;;;-1.22;59.61
49825;BME280;35714;55.708;37.478;2023-02-11T06:25:17;99307.94;;;-1.25;59.83
49825;BME280;35714;55.708;37.478;2023-02-11T06:27:43;99317.41;;;-1.23;59.79
49825;BME280;35714;55.708;37.478;2023-02-11T06:30:09;99305.44;;;-1.19;59.55
49825;BME280;35714;55.708;37.478;2023-02-11T06:32:35;99315.22;;;-1.28;59.93
49825;BME280;35714;55.708;37.478;2023-02-11T06:35:01;99326.03;;;-1.29;59.96
49825;BME280;35714;55.708;37.478;2023-02-11T06:37:27;99307.78;;;-1.16;59.40
49825;BME280;35714;55.708;37.478;2023-02-11T06:39:53;99313.13;;;-1.16;59.23
49825;BME280;35714;55.708;37.478;2023-02-11T06:42:18;99293.47;;;-1.23;59.43
49825;BME280;35714;55.708;37.478;2023-02-11T06:44:44;99318.78;;;-1.02;58.75
49825;BME280;35714;55.708;37.478;2023-02-11T06:47:10;99309.81;;;-1.10;58.76
49825;BME280;35714;55.708;37.478;2023-02-11T06:49:35;99313.25;;;-1.25;59.32
49825;BME280;35714;55.708;37.478;2023-02-11T06:52:01;99303.75;;;-1.28;60.04
49825;BME280;35714;55.708;37.478;2023-02-11T06:54:27;99306.13;;;-1.17;59.64
49825;BME280;35714;55.708;37.478;2023-02-11T06:56:53;99310.44;;;-1.16;59.85
49825;BME280;35714;55.708;37.478;2023-02-11T06:59:19;99301.66;;;-1.00;60.13
49825;BME280;35714;55.708;37.478;2023-02-11T07:01:45;99309.22;;;-0.62;58.98
49825;BME280;35714;55.708;37.478;2023-02-11T07:04:11;99320.53;;;-0.44;57.68
49825;BME280;35714;55.708;37.478;2023-02-11T07:06:39;99322.88;;;-0.41;57.38
49825;BME280;35714;55.708;37.478;2023-02-11T07:09:04;99298.88;;;-0.49;56.86
49825;BME280;35714;55.708;37.478;2023-02-11T07:11:30;99321.53;;;-0.53;57.12
49825;BME280;35714;55.708;37.478;2023-02-11T07:14:03;99316.88;;;-0.51;57.61
49825;BME280;35714;55.708;37.478;2023-02-11T07:16:30;99312.53;;;-0.27;57.43
49825;BME280;35714;55.708;37.478;2023-02-11T07:18:56;99304.53;;;-0.27;56.98
49825;BME280;35714;55.708;37.478;2023-02-11T07:21:22;99312.88;;;-0.14;57.15
49825;BME280;35714;55.708;37.478;2023-02-11T07:23:49;99313.81;;;0.10;56.40
49825;BME280;35714;55.708;37.478;2023-02-11T07:26:18;99309.78;;;0.14;55.86
49825;BME280;35714;55.708;37.478;2023-02-11T07:28:45;99309.47;;;0.17;55.19
49825;BME280;35714;55.708;37.478;2023-02-11T07:33:39;99296.47;;;0.22;54.71
49825;BME280;35714;55.708;37.478;2023-02-11T07:36:06;99290.78;;;0.25;54.48
49825;BME280;35714;55.708;37.478;2023-02-11T07:38:33;99303.09;;;0.26;54.21
49825;BME280;35714;55.708;37.478;2023-02-11T07:41:00;99294.91;;;0.36;54.08
49825;BME280;35714;55.708;37.478;2023-02-11T07:43:27;99295.06;;;0.34;54.07
49825;BME280;35714;55.708;37.478;2023-02-11T07:45:53;99301.28;;;0.27;54.05
49825;BME280;35714;55.708;37.478;2023-02-11T07:48:19;99291.31;;;0.21;53.90
49825;BME280;35714;55.708;37.478;2023-02-11T07:50:44;99294.44;;;0.24;54.22
49825;BME280;35714;55.708;37.478;2023-02-11T07:53:10;99284.75;;;0.31;54.20
49825;BME280;35714;55.708;37.478;2023-02-11T07:55:35;99292.75;;;0.40;54.11
49825;BME280;35714;55.708;37.478;2023-02-11T07:58:01;99288.22;;;0.40;54.03
49825;BME280;35714;55.708;37.478;2023-02-11T08:00:27;99279.06;;;0.43;52.94
49825;BME280;35714;55.708;37.478;2023-02-11T08:02:52;99280.31;;;0.15;52.20
49825;BME280;35714;55.708;37.478;2023-02-11T08:05:18;99288.84;;;-0.06;53.01
49825;BME280;35714;55.708;37.478;2023-02-11T08:07:44;99278.22;;;-0.22;53.76
49825;BME280;35714;55.708;37.478;2023-02-11T08:10:09;99270.50;;;-0.01;54.10
49825;BME280;35714;55.708;37.478;2023-02-11T08:12:36;99282.00;;;0.56;53.46
49825;BME280;35714;55.708;37.478;2023-02-11T08:15:01;99266.00;;;1.11;52.13
49825;BME280;35714;55.708;37.478;2023-02-11T08:17:29;99265.34;;;1.32;50.78
49825;BME280;35714;55.708;37.478;2023-02-11T08:19:55;99266.06;;;1.25;50.69
49825;BME280;35714;55.708;37.478;2023-02-11T08:22:20;99257.28;;;1.17;50.12
49825;BME280;35714;55.708;37.478;2023-02-11T08:24:46;99250.97;;;1.10;50.66
49825;BME280;35714;55.708;37.478;2023-02-11T08:27:12;99243.69;;;1.03;50.89
49825;BME280;35714;55.708;37.478;2023-02-11T08:29:37;99246.34;;;1.03;51.06
49825;BME280;35714;55.708;37.478;2023-02-11T08:32:03;99236.16;;;1.07;51.27
49825;BME280;35714;55.708;37.478;2023-02-11T08:34:29;99248.25;;;1.18;50.29
49825;BME280;35714;55.708;37.478;2023-02-11T08:36:54;99244.13;;;1.15;50.81
49825;BME280;35714;55.708;37.478;2023-02-11T08:39:21;99246.28;;;1.12;50.83
49825;BME280;35714;55.708;37.478;2023-02-11T08:41:49;99235.50;;;1.05;50.71
49825;BME280;35714;55.708;37.478;2023-02-11T08:44:17;99225.00;;;1.03;51.04
49825;BME280;35714;55.708;37.478;2023-02-11T08:46:43;99224.63;;;1.06;50.95
49825;BME280;35714;55.708;37.478;2023-02-11T08:49:09;99218.06;;;0.94;50.95
49825;BME280;35714;55.708;37.478;2023-02-11T08:51:35;99219.66;;;0.80;51.43
49825;BME280;35714;55.708;37.478;2023-02-11T08:54:00;99213.94;;;0.60;51.75
49825;BME280;35714;55.708;37.478;2023-02-11T08:56:26;99216.66;;;0.52;52.01
49825;BME280;35714;55.708;37.478;2023-02-11T08:58:52;99208.69;;;0.44;52.30
49825;BME280;35714;55.708;37.478;2023-02-11T09:01:21;99212.22;;;0.44;52.40
49825;BME280;35714;55.708;37.478;2023-02-11T09:03:47;99170.41;;;0.37;52.29
49825;BME280;35714;55.708;37.478;2023-02-11T09:06:14;99165.81;;;0.22;52.82
49825;BME280;35714;55.708;37.478;2023-02-11T09:08:45;99177.72;;;0.34;52.70
49825;BME280;35714;55.708;37.478;2023-02-11T09:11:12;99171.56;;;0.34;52.81
49825;BME280;35714;55.708;37.478;2023-02-11T09:13:39;99159.38;;;0.40;52.90
49825;BME280;35714;55.708;37.478;2023-02-11T09:16:05;99152.03;;;0.42;52.95
49825;BME280;35714;55.708;37.478;2023-02-11T09:18:31;99138.41;;;0.37;53.11
49825;BME280;35714;55.708;37.478;2023-02-11T09:21:05;99139.34;;;0.44;53.05
49825;BME280;35714;55.708;37.478;2023-02-11T09:23:31;99133.28;;;0.27;53.60
49825;BME280;35714;55.708;37.478;2023-02-11T09:26:32;99124.38;;;0.34;53.75
49825;BME280;35714;55.708;37.478;2023-02-11T09:28:58;99101.00;;;0.45;53.26
49825;BME280;35714;55.708;37.478;2023-02-11T09:31:26;99120.72;;;0.35;53.49
49825;BME280;35714;55.708;37.478;2023-02-11T09:33:55;99111.47;;;0.23;54.03
49825;BME280;35714;55.708;37.478;2023-02-11T09:36:27;99098.53;;;0.12;54.29
49825;BME280;35714;55.708;37.478;2023-02-11T09:38:54;99105.38;;;0.14;54.40
49825;BME280;35714;55.708;37.478;2023-02-11T09:43:51;99106.00;;;0.16;54.90
49825;BME280;35714;55.708;37.478;2023-02-11T09:46:17;99100.84;;;0.15;54.64
49825;BME280;35714;55.708;37.478;2023-02-11T09:48:47;99094.53;;;0.16;54.63
49825;BME280;35714;55.708;37.478;2023-02-11T09:53:57;99070.19;;;-0.12;55.16
49825;BME280;35714;55.708;37.478;2023-02-11T09:56:26;99069.56;;;-0.23;55.81
49825;BME280;35714;55.708;37.478;2023-02-11T09:58:53;99081.25;;;-0.32;56.25
49825;BME280;35714;55.708;37.478;2023-02-11T10:01:42;99081.41;;;-0.25;56.30
49825;BME280;35714;55.708;37.478;2023-02-11T10:07:29;99082.03;;;-0.15;56.44
49825;BME280;35714;55.708;37.478;2023-02-11T10:12:45;99066.38;;;-0.18;56.61
49825;BME280;35714;55.708;37.478;2023-02-11T10:15:41;99060.00;;;-0.09;56.25
49825;BME280;35714;55.708;37.478;2023-02-11T10:21:38;99057.75;;;-0.20;56.31
49825;BME280;35714;55.708;37.478;2023-02-11T10:24:13;99044.25;;;-0.19;56.67
49825;BME280;35714;55.708;37.478;2023-02-11T10:26:40;99035.22;;;-0.09;56.33
49825;BME280;35714;55.708;37.478;2023-02-11T10:31:52;99030.28;;;0.03;56.44
49825;BME280;35714;55.708;37.478;2023-02-11T10:34:18;99017.59;;;0.05;55.84
49825;BME280;35714;55.708;37.478;2023-02-11T10:36:44;99014.22;;;0.11;56.08
49825;BME280;35714;55.708;37.478;2023-02-11T10:41:42;98997.84;;;0.22;56.04
49825;BME280;35714;55.708;37.478;2023-02-11T10:44:18;99004.81;;;0.23;55.57
49825;BME280;35714;55.708;37.478;2023-02-11T10:46:45;98990.50;;;0.24;55.29
49825;BME280;35714;55.708;37.478;2023-02-11T10:49:38;98993.78;;;0.26;55.70
49825;BME280;35714;55.708;37.478;2023-02-11T10:52:24;98982.06;;;0.35;55.34
49825;BME280;35714;55.708;37.478;2023-02-11T10:54:59;98969.00;;;0.41;55.14
49825;BME280;35714;55.708;37.478;2023-02-11T10:57:37;98965.63;;;0.47;54.83
49825;BME280;35714;55.708;37.478;2023-02-11T11:02:58;98952.41;;;0.53;54.33
49825;BME280;35714;55.708;37.478;2023-02-11T11:05:33;98947.53;;;0.57;54.32
49825;BME280;35714;55.708;37.478;2023-02-11T11:08:04;98941.56;;;0.70;53.36
49825;BME280;35714;55.708;37.478;2023-02-11T11:10:37;98950.38;;;0.70;53.77
49825;BME280;35714;55.708;37.478;2023-02-11T11:13:32;98944.97;;;0.79;53.05
49825;BME280;35714;55.708;37.478;2023-02-11T11:18:43;98919.53;;;0.53;53.56
49825;BME280;35714;55.708;37.478;2023-02-11T11:21:24;98917.81;;;0.60;53.82
49825;BME280;35714;55.708;37.478;2023-02-11T11:23:54;98919.84;;;0.73;53.45
49825;BME280;35714;55.708;37.478;2023-02-11T11:26:21;98915.34;;;0.88;53.04
49825;BME280;35714;55.708;37.478;2023-02-11T11:29:05;98902.63;;;0.76;53.67
49825;BME280;35714;55.708;37.478;2023-02-11T11:31:45;98904.19;;;0.70;53.67
49825;BME280;35714;55.708;37.478;2023-02-11T11:34:36;98896.94;;;0.79;53.16
49825;BME280;35714;55.708;37.478;2023-02-11T11:37:11;98899.13;;;0.60;53.01
49825;BME280;35714;55.708;37.478;2023-02-11T11:39:38;98878.97;;;0.58;52.56
49825;BME280;35714;55.708;37.478;2023-02-11T11:42:19;98896.25;;;0.47;52.27
49825;BME280;35714;55.708;37.478;2023-02-11T11:47:28;98860.13;;;0.29;52.12
49825;BME280;35714;55.708;37.478;2023-02-11T11:53:00;98868.03;;;0.23;52.82
49825;BME280;35714;55.708;37.478;2023-02-11T11:55:34;98856.22;;;0.17;53.34
49825;BME280;35714;55.708;37.478;2023-02-11T11:58:03;98853.13;;;0.28;53.53
49825;BME280;35714;55.708;37.478;2023-02-11T12:00:47;98852.59;;;0.48;53.07
49825;BME280;35714;55.708;37.478;2023-02-11T12:09:00;98853.03;;;0.51;52.58
49825;BME280;35714;55.708;37.478;2023-02-11T12:11:39;98838.16;;;0.27;52.26
49825;BME280;35714;55.708;37.478;2023-02-11T12:14:37;98827.66;;;0.26;52.81
49825;BME280;35714;55.708;37.478;2023-02-11T12:22:37;98840.72;;;0.35;52.54
49825;BME280;35714;55.708;37.478;2023-02-11T12:25:26;98810.84;;;0.25;52.22
49825;BME280;35714;55.708;37.478;2023-02-11T12:52:46;98758.13;;;-0.32;54.86
49825;BME280;35714;55.708;37.478;2023-02-11T12:55:24;98751.13;;;-0.33;54.94
49825;BME280;35714;55.708;37.478;2023-02-11T12:57:53;98744.81;;;-0.32;55.17
49825;BME280;35714;55.708;37.478;2023-02-11T13:00:41;98727.72;;;-0.23;54.86
49825;BME280;35714;55.708;37.478;2023-02-11T13:03:43;98717.91;;;-0.23;55.17
49825;BME280;35714;55.708;37.478;2023-02-11T13:06:15;98714.41;;;-0.23;55.04
49825;BME280;35714;55.708;37.478;2023-02-11T13:08:50;98705.69;;;-0.17;54.90
49825;BME280;35714;55.708;37.478;2023-02-11T13:13:56;98695.41;;;-0.20;55.21
49825;BME280;35714;55.708;37.478;2023-02-11T13:16:37;98684.56;;;-0.19;55.30
49825;BME280;35714;55.708;37.478;2023-02-11T13:22:18;98681.16;;;-0.12;55.74
49825;BME280;35714;55.708;37.478;2023-02-11T13:30:12;98663.69;;;-0.15;56.02
49825;BME280;35714;55.708;37.478;2023-02-11T13:38:05;98636.59;;;-0.33;57.61
49825;BME280;35714;55.708;37.478;2023-02-11T13:40:42;98635.22;;;-0.29;57.88
49825;BME280;35714;55.708;37.478;2023-02-11T13:43:19;98631.00;;;-0.39;58.74
49825;BME280;35714;55.708;37.478;2023-02-11T13:45:48;98609.34;;;-0.35;58.95
49825;BME280;35714;55.708;37.478;2023-02-11T13:48:24;98619.34;;;-0.38;59.25
49825;BME280;35714;55.708;37.478;2023-02-11T13:50:56;98617.69;;;-0.39;59.75
49825;BME280;35714;55.708;37.478;2023-02-11T13:53:24;98599.16;;;-0.47;60.46
49825;BME280;35714;55.708;37.478;2023-02-11T13:56:05;98588.88;;;-0.50;60.66
49825;BME280;35714;55.708;37.478;2023-02-11T13:58:34;98587.19;;;-0.51;60.86
49825;BME280;35714;55.708;37.478;2023-02-11T14:01:04;98581.44;;;-0.55;60.88
49825;BME280;35714;55.708;37.478;2023-02-11T14:03:37;98573.81;;;-0.58;61.24
49825;BME280;35714;55.708;37.478;2023-02-11T14:06:23;98558.00;;;-0.59;61.41
49825;BME280;35714;55.708;37.478;2023-02-11T14:14:27;98540.28;;;-0.67;61.45
49825;BME280;35714;55.708;37.478;2023-02-11T14:19:40;98531.47;;;-0.52;61.26
49825;BME280;35714;55.708;37.478;2023-02-11T14:27:29;98523.13;;;-0.79;62.23
49825;BME280;35714;55.708;37.478;2023-02-11T14:30:18;98499.72;;;-0.84;62.61
49825;BME280;35714;55.708;37.478;2023-02-11T14:41:06;98479.72;;;-0.80;62.62
49825;BME280;35714;55.708;37.478;2023-02-11T14:43:39;98440.19;;;-0.83;62.72
49825;BME280;35714;55.708;37.478;2023-02-11T14:46:05;98452.09;;;-0.79;62.65
49825;BME280;35714;55.708;37.478;2023-02-11T14:48:36;98448.53;;;-0.86;63.05
49825;BME280;35714;55.708;37.478;2023-02-11T14:53:45;98429.91;;;-0.86;63.32
49825;BME280;35714;55.708;37.478;2023-02-11T14:56:22;98449.59;;;-0.65;63.04
49825;BME280;35714;55.708;37.478;2023-02-11T14:58:51;98435.38;;;-0.73;63.14
49825;BME280;35714;55.708;37.478;2023-02-11T15:03:54;98411.59;;;-0.74;63.87
49825;BME280;35714;55.708;37.478;2023-02-11T15:06:27;98407.50;;;-0.77;63.91
49825;BME280;35714;55.708;37.478;2023-02-11T15:08:59;98386.16;;;-0.83;64.51
49825;BME280;35714;55.708;37.478;2023-02-11T15:11:30;98391.91;;;-0.80;64.52
49825;BME280;35714;55.708;37.478;2023-02-11T15:14:00;98391.06;;;-0.80;64.55
49825;BME280;35714;55.708;37.478;2023-02-11T15:16:31;98372.38;;;-0.87;64.73
49825;BME280;35714;55.708;37.478;2023-02-11T15:19:03;98386.03;;;-0.75;64.86
49825;BME280;35714;55.708;37.478;2023-02-11T15:21:33;98370.25;;;-0.77;64.68
49825;BME280;35714;55.708;37.478;2023-02-11T15:24:17;98367.41;;;-0.75;64.68
49825;BME280;35714;55.708;37.478;2023-02-11T15:26:54;98354.66;;;-0.80;65.01